Time;durP1;ratioP1;P1;durP2;ratioP2;P2;SDS_P1;SDS_P2;PMS_P1;PMS_P2;Temp;Humidity;BMP_temperature;BMP_pressure;BME280_temperature;BME280_humidity;BME280_pressure;Samples;Min_cycle;Max_cycle;Signal;HPM_P1;HPM_P2
2023/08/03 00:01:10;;;;;;;3.15;1.60;;;;;;;25.84;46.65;99179.56;5092692;28;20127;-64
2023/08/03 00:03:39;;;;;;;2.90;1.80;;;;;;;25.85;46.43;99175.78;5092669;28;20072;-62
2023/08/03 00:06:07;;;;;;;3.53;1.70;;;;;;;25.83;46.40;99173.25;5092869;28;20052;-63
2023/08/03 00:08:35;;;;;;;3.17;1.85;;;;;;;25.82;46.62;99177.06;5092245;28;20052;-62
2023/08/03 00:11:03;;;;;;;3.00;1.80;;;;;;;25.82;46.89;99181.69;5092617;28;20052;-62
2023/08/03 00:13:32;;;;;;;4.15;1.90;;;;;;;25.82;46.36;99181.69;5092290;28;20051;-63
2023/08/03 00:16:00;;;;;;;2.95;1.70;;;;;;;25.82;46.49;99184.41;5091049;28;20093;-64
2023/08/03 00:18:30;;;;;;;3.25;1.65;;;;;;;25.81;46.86;99182.75;5091823;28;20276;-62
2023/08/03 00:20:58;;;;;;;2.60;1.55;;;;;;;25.81;46.66;99182.75;5092400;28;20048;-63
2023/08/03 00:23:26;;;;;;;2.97;1.73;;;;;;;25.80;46.96;99181.06;5092109;28;20052;-63
2023/08/03 00:25:54;;;;;;;3.17;1.30;;;;;;;25.79;46.92;99188.41;5092416;28;20073;-64
2023/08/03 00:28:22;;;;;;;2.90;1.48;;;;;;;25.78;46.91;99191.38;5092258;28;20040;-65
2023/08/03 00:30:51;;;;;;;2.25;1.45;;;;;;;25.78;46.57;99192.22;5092087;28;20138;-65
2023/08/03 00:33:19;;;;;;;2.72;1.73;;;;;;;25.78;47.00;99196.84;5090743;28;20135;-65
2023/08/03 00:35:49;;;;;;;2.30;1.42;;;;;;;25.77;46.66;99195.13;5091859;28;20048;-65
2023/08/03 00:38:17;;;;;;;3.85;1.70;;;;;;;25.76;46.59;99199.75;5091878;28;20043;-65
2023/08/03 00:40:45;;;;;;;3.05;1.90;;;;;;;25.76;47.07;99207.94;5092004;28;20075;-65
2023/08/03 00:43:13;;;;;;;2.58;1.60;;;;;;;25.75;47.02;99202.72;5091862;28;20051;-64
2023/08/03 00:45:41;;;;;;;2.30;1.40;;;;;;;25.73;46.83;99200.19;5091948;28;20075;-65
2023/08/03 00:48:10;;;;;;;2.65;1.63;;;;;;;25.74;47.33;99201.03;5091841;28;20378;-64
2023/08/03 00:50:38;;;;;;;3.55;1.60;;;;;;;25.72;46.85;99194.97;5091724;28;20048;-65
2023/08/03 00:53:08;;;;;;;4.32;1.60;;;;;;;25.73;47.14;99188.44;5091716;28;20500;-63
2023/08/03 00:55:36;;;;;;;4.10;1.88;;;;;;;25.72;47.31;99186.75;5091806;28;20036;-64
2023/08/03 00:58:04;;;;;;;2.50;1.60;;;;;;;25.71;47.03;99187.81;5091886;28;20056;-62
2023/08/03 01:00:32;;;;;;;2.35;1.30;;;;;;;25.69;47.12;99188.84;5091751;28;20048;-64
2023/08/03 01:03:00;;;;;;;3.00;1.63;;;;;;;25.69;47.06;99177.91;5091955;28;20079;-63
2023/08/03 01:05:29;;;;;;;3.33;1.70;;;;;;;25.67;47.45;99177.31;5091755;28;20059;-65
2023/08/03 01:08:00;;;;;;;2.45;1.52;;;;;;;25.68;47.08;99183.59;5091669;28;20091;-62
2023/08/03 01:10:30;;;;;;;3.38;1.80;;;;;;;25.65;47.13;99187.56;5091469;28;20412;-63
2023/08/03 01:12:58;;;;;;;2.58;1.60;;;;;;;25.67;47.33;99190.09;5091532;28;20163;-62
2023/08/03 01:15:26;;;;;;;2.33;1.30;;;;;;;25.66;47.26;99188.41;5091402;28;20050;-63
2023/08/03 01:17:55;;;;;;;2.13;1.48;;;;;;;25.65;47.15;99187.56;5091688;28;20496;-62
2023/08/03 01:20:25;;;;;;;2.78;1.60;;;;;;;25.63;47.09;99189.69;5091282;28;20488;-65
2023/08/03 01:22:54;;;;;;;2.45;1.45;;;;;;;25.62;47.35;99188.03;5091558;28;20048;-63
2023/08/03 01:25:26;;;;;;;2.80;1.60;;;;;;;25.63;47.35;99186.97;5091539;28;20043;-63
2023/08/03 01:27:55;;;;;;;3.15;1.60;;;;;;;25.61;47.58;99186.34;5091381;28;20511;-62
2023/08/03 01:30:23;;;;;;;2.95;1.35;;;;;;;25.61;47.60;99186.34;5093408;28;20488;-64
2023/08/03 01:32:52;;;;;;;2.40;1.50;;;;;;;25.61;47.58;99177.31;5095549;28;20130;-64
2023/08/03 01:35:20;;;;;;;2.28;1.10;;;;;;;25.60;47.43;99179.22;5095489;28;20054;-63
2023/08/03 01:37:50;;;;;;;2.90;1.60;;;;;;;25.58;47.63;99170.41;5095531;28;20048;-65
2023/08/03 01:40:20;;;;;;;3.08;1.60;;;;;;;25.60;47.31;99172.91;5095387;28;20044;-63
2023/08/03 01:42:48;;;;;;;2.25;1.50;;;;;;;25.58;47.40;99170.41;5095148;28;20048;-64
2023/08/03 01:45:17;;;;;;;2.30;1.40;;;;;;;25.58;47.58;99170.41;5095440;28;20055;-65
2023/08/03 01:47:45;;;;;;;2.50;1.50;;;;;;;25.57;47.70;99162.41;5095497;28;20091;-64
2023/08/03 01:50:13;;;;;;;2.50;1.45;;;;;;;25.54;47.54;99163.69;5095272;28;20102;-64
2023/08/03 01:52:41;;;;;;;2.80;1.40;;;;;;;25.56;47.73;99158.84;5095098;28;20048;-64
2023/08/03 01:55:09;;;;;;;3.20;1.70;;;;;;;25.55;47.73;99159.91;5095378;28;20056;-63
2023/08/03 01:57:39;;;;;;;2.78;1.45;;;;;;;25.54;47.87;99158.22;5095066;28;20052;-63
2023/08/03 02:00:08;;;;;;;2.83;1.55;;;;;;;25.53;47.74;99155.72;5095152;28;20048;-63
2023/08/03 02:02:36;;;;;;;4.13;1.80;;;;;;;25.53;47.84;99153.81;5095101;28;20050;-63
2023/08/03 02:05:06;;;;;;;1.98;1.20;;;;;;;25.51;47.70;99155.09;5094834;28;20492;-63
2023/08/03 02:07:45;;;;;;;2.70;1.40;;;;;;;25.50;47.63;99157.00;5095041;28;20052;-63
2023/08/03 02:10:14;;;;;;;2.70;1.60;;;;;;;25.51;47.76;99153.19;5094603;28;20583;-63
2023/08/03 02:12:44;;;;;;;2.53;1.60;;;;;;;25.50;48.05;99157.00;5094904;28;20048;-64
2023/08/03 02:15:13;;;;;;;2.72;1.30;;;;;;;25.49;48.02;99149.84;5094785;28;20044;-63
2023/08/03 02:17:42;;;;;;;3.28;1.35;;;;;;;25.49;48.17;99149.00;5094554;28;20054;-63
2023/08/03 02:20:11;;;;;;;2.55;1.60;;;;;;;25.47;48.12;99168.31;5094579;28;20106;-63
2023/08/03 02:22:40;;;;;;;2.17;1.50;;;;;;;25.47;47.98;99162.84;5094507;28;20060;-64
2023/08/03 02:25:09;;;;;;;3.25;1.70;;;;;;;25.49;47.92;99168.13;5094515;28;20044;-64
2023/08/03 02:27:37;;;;;;;3.35;1.52;;;;;;;25.47;48.19;99160.13;5094633;28;20048;-64
2023/08/03 02:30:09;;;;;;;3.47;1.60;;;;;;;25.44;48.08;99157.84;5094507;28;20052;-64
2023/08/03 02:32:38;;;;;;;3.27;1.73;;;;;;;25.46;47.80;99163.91;5094286;28;20501;-64
2023/08/03 02:35:07;;;;;;;2.67;1.55;;;;;;;25.44;48.14;99163.28;5094531;28;20137;-63
2023/08/03 02:37:35;;;;;;;3.08;1.58;;;;;;;25.44;48.01;99160.56;5094332;28;20070;-63
2023/08/03 02:40:08;;;;;;;2.53;1.50;;;;;;;25.44;48.18;99166.03;5093875;28;20044;-63
2023/08/03 02:42:37;;;;;;;3.67;1.60;;;;;;;25.43;48.20;99167.06;5094276;28;20047;-63
2023/08/03 02:45:08;;;;;;;2.53;1.45;;;;;;;25.43;47.93;99158.88;5094047;28;20047;-63
2023/08/03 02:47:36;;;;;;;3.90;1.58;;;;;;;25.39;48.05;99160.38;5094163;28;20059;-63
2023/08/03 02:50:05;;;;;;;2.85;1.52;;;;;;;25.42;48.24;99170.88;5094148;28;20055;-64
2023/08/03 02:52:36;;;;;;;3.00;1.52;;;;;;;25.40;48.10;99173.81;5093959;28;20048;-63
2023/08/03 02:55:04;;;;;;;2.97;1.70;;;;;;;25.40;48.38;99170.25;5093977;28;20048;-63
2023/08/03 02:57:33;;;;;;;2.38;1.40;;;;;;;25.38;48.22;99170.47;5094101;28;20048;-63
2023/08/03 03:00:01;;;;;;;2.13;1.30;;;;;;;25.38;48.38;99161.41;5093662;28;20052;-62
2023/08/03 03:02:30;;;;;;;3.25;1.65;;;;;;;25.38;48.26;99169.59;5093647;28;20453;-65
2023/08/03 03:04:59;;;;;;;3.33;1.73;;;;;;;25.36;48.71;99171.72;5093799;28;20040;-64
2023/08/03 03:07:27;;;;;;;3.33;1.77;;;;;;;25.36;48.47;99178.00;5093161;28;20051;-64
2023/08/03 03:09:56;;;;;;;2.92;1.50;;;;;;;25.36;47.99;99177.16;5093658;28;20473;-64
2023/08/03 03:12:24;;;;;;;2.33;1.58;;;;;;;25.35;48.18;99178.22;5093442;28;20055;-64
2023/08/03 03:14:52;;;;;;;3.63;1.55;;;;;;;25.35;48.58;99180.94;5093313;28;20089;-64
2023/08/03 03:17:20;;;;;;;2.78;1.55;;;;;;;25.34;48.33;99176.53;5093719;28;20040;-64
2023/08/03 03:19:50;;;;;;;3.40;1.55;;;;;;;25.34;48.13;99184.72;5093285;28;20082;-64
2023/08/03 03:22:18;;;;;;;2.35;1.45;;;;;;;25.32;48.22;99186.84;5093354;28;20054;-64
2023/08/03 03:24:46;;;;;;;2.95;1.85;;;;;;;25.31;48.68;99186.00;5093311;28;20047;-63
2023/08/03 03:27:14;;;;;;;4.43;2.40;;;;;;;25.29;48.16;99184.56;5093197;28;20048;-63
2023/08/03 03:29:43;;;;;;;5.97;2.53;;;;;;;25.31;48.63;99186.00;5093438;28;20137;-63
2023/08/03 03:32:11;;;;;;;3.33;2.05;;;;;;;25.29;48.36;99190.84;5093357;28;20421;-64
2023/08/03 03:34:39;;;;;;;4.15;2.00;;;;;;;25.28;48.24;99177.38;5093028;28;20077;-63
2023/08/03 03:37:09;;;;;;;2.95;1.60;;;;;;;25.28;48.49;99188.31;5093170;28;20122;-64
2023/08/03 03:39:37;;;;;;;2.28;1.40;;;;;;;25.28;48.60;99188.31;5093402;28;20044;-63
2023/08/03 03:42:06;;;;;;;3.42;1.63;;;;;;;25.24;48.29;99182.44;5092811;28;20083;-64
2023/08/03 03:44:34;;;;;;;2.53;1.50;;;;;;;25.26;48.74;99196.72;5093238;28;20134;-63
2023/08/03 03:47:02;;;;;;;2.75;1.63;;;;;;;25.26;48.40;99195.88;5091640;28;20135;-63
2023/08/03 03:49:30;;;;;;;3.63;1.67;;;;;;;25.25;48.58;99196.94;5092843;28;20097;-62
2023/08/03 03:51:59;;;;;;;3.45;1.73;;;;;;;25.24;48.46;99189.78;5092170;28;20046;-65
2023/08/03 03:54:28;;;;;;;2.65;1.60;;;;;;;25.24;48.79;99190.63;5092536;28;20079;-64
2023/08/03 03:56:57;;;;;;;3.20;1.60;;;;;;;25.24;48.69;99178.88;5092863;28;20135;-64
2023/08/03 03:59:28;;;;;;;2.55;1.55;;;;;;;25.23;48.63;99188.97;5092510;28;20044;-64
2023/08/03 04:01:56;;;;;;;3.72;1.80;;;;;;;25.23;48.36;99179.94;5092787;28;20043;-64
2023/08/03 04:04:25;;;;;;;2.97;1.67;;;;;;;25.22;48.60;99186.44;5092625;28;20428;-63
2023/08/03 04:06:56;;;;;;;2.67;1.55;;;;;;;25.22;48.88;99192.75;5092543;28;20044;-63
2023/08/03 04:09:24;;;;;;;2.70;1.60;;;;;;;25.21;48.71;99179.31;5092179;28;20079;-64
2023/08/03 04:11:53;;;;;;;2.22;1.45;;;;;;;25.22;48.77;99178.25;5092683;28;20047;-64
2023/08/03 04:14:21;;;;;;;2.85;1.50;;;;;;;25.21;48.60;99184.78;5092215;28;20052;-65
2023/08/03 04:16:50;;;;;;;2.83;1.60;;;;;;;25.21;48.95;99179.31;5092503;28;20047;-64
2023/08/03 04:19:18;;;;;;;3.58;1.83;;;;;;;25.22;48.97;99175.53;5092370;28;20055;-64
2023/08/03 04:21:46;;;;;;;3.00;1.52;;;;;;;25.20;48.90;99178.47;5092180;28;20044;-64
2023/08/03 04:24:14;;;;;;;4.13;1.70;;;;;;;25.20;48.88;99188.56;5092396;28;20047;-65
2023/08/03 04:26:42;;;;;;;4.03;1.65;;;;;;;25.19;49.04;99186.84;5092320;28;20048;-64
2023/08/03 04:29:12;;;;;;;3.90;1.60;;;;;;;25.20;49.19;99188.56;5092273;28;20044;-64
2023/08/03 04:31:40;;;;;;;3.28;1.75;;;;;;;25.19;49.20;99186.84;5092334;28;20127;-65
2023/08/03 04:34:11;;;;;;;3.42;1.70;;;;;;;25.19;49.26;99182.25;5091844;28;20056;-65
2023/08/03 04:36:40;;;;;;;2.97;1.50;;;;;;;25.17;49.06;99178.88;5092113;28;20044;-64
2023/08/03 04:39:08;;;;;;;2.60;1.58;;;;;;;25.18;49.33;99166.91;5092088;28;20044;-63
2023/08/03 04:41:36;;;;;;;3.28;1.55;;;;;;;25.18;48.89;99168.81;5092147;28;20040;-64
2023/08/03 04:44:05;;;;;;;3.20;1.60;;;;;;;25.18;49.13;99157.88;5091845;28;20618;-64
2023/08/03 04:46:34;;;;;;;3.88;1.70;;;;;;;25.18;48.99;99168.81;5091947;28;20204;-64
2023/08/03 04:49:03;;;;;;;2.92;1.50;;;;;;;25.19;49.30;99175.94;5091661;28;20051;-64
2023/08/03 04:51:31;;;;;;;2.88;1.45;;;;;;;25.18;49.18;99164.19;5091915;28;20048;-64
2023/08/03 04:53:59;;;;;;;2.60;1.60;;;;;;;25.18;49.22;99169.63;5091631;28;20048;-64
2023/08/03 04:56:27;;;;;;;2.88;1.50;;;;;;;25.18;49.36;99163.34;5091589;28;20052;-63
2023/08/03 04:58:55;;;;;;;2.58;1.60;;;;;;;25.17;49.61;99167.97;5091829;28;20055;-62
2023/08/03 05:01:24;;;;;;;1.98;1.40;;;;;;;25.19;49.11;99167.75;5090990;28;20048;-63
2023/08/03 05:03:55;;;;;;;3.08;1.55;;;;;;;25.19;49.20;99170.47;5091643;28;20040;-64
2023/08/03 05:06:23;;;;;;;3.55;1.85;;;;;;;25.19;49.46;99178.66;5091534;28;20047;-63
2023/08/03 05:08:51;;;;;;;3.53;1.80;;;;;;;25.19;49.36;99176.81;5091290;28;20501;-63
2023/08/03 05:11:21;;;;;;;3.13;1.65;;;;;;;25.08;49.26;99164.63;5091580;28;20048;-62
2023/08/03 05:13:49;;;;;;;3.72;1.60;;;;;;;25.20;49.27;99186.66;5091300;28;20139;-63
2023/08/03 05:16:24;;;;;;;3.72;1.70;;;;;;;25.20;49.58;99183.94;5091419;28;20050;-63
2023/08/03 05:18:52;;;;;;;3.17;1.92;;;;;;;25.19;49.71;99176.81;5091576;28;20082;-64
2023/08/03 05:21:21;;;;;;;4.03;2.10;;;;;;;25.19;49.73;99175.94;5091599;28;20451;-62
2023/08/03 05:23:50;;;;;;;3.00;1.70;;;;;;;25.20;49.49;99180.38;5091256;28;20044;-62
2023/08/03 05:26:18;;;;;;;2.15;1.42;;;;;;;25.19;49.59;99176.81;5091337;28;20044;-64
2023/08/03 05:28:46;;;;;;;3.13;1.60;;;;;;;25.20;49.93;99177.66;5091115;28;20044;-64
2023/08/03 05:31:14;;;;;;;2.33;1.40;;;;;;;25.21;49.76;99174.69;5091474;28;20050;-64
2023/08/03 05:33:43;;;;;;;3.25;1.80;;;;;;;25.20;49.80;99167.56;5091274;28;20438;-63
2023/08/03 05:36:11;;;;;;;3.22;1.50;;;;;;;25.22;50.12;99164.63;5091251;28;20085;-63
2023/08/03 05:38:41;;;;;;;3.25;1.70;;;;;;;25.22;49.83;99170.91;5091045;28;20044;-63
2023/08/03 05:41:15;;;;;;;2.78;1.60;;;;;;;25.24;49.96;99176.16;5091135;28;20081;-65
2023/08/03 05:43:46;;;;;;;4.03;1.80;;;;;;;25.23;50.22;99177.22;5091463;28;20109;-64
2023/08/03 05:46:16;;;;;;;2.75;1.80;;;;;;;25.24;50.33;99181.63;5091310;28;20141;-66
2023/08/03 05:48:48;;;;;;;3.58;1.80;;;;;;;25.24;50.30;99170.69;5091128;28;20482;-61
2023/08/03 05:51:24;;;;;;;3.45;1.55;;;;;;;25.25;50.21;99180.56;5091107;28;20044;-61
2023/08/03 05:53:53;;;;;;;3.65;1.50;;;;;;;25.25;50.34;99180.56;5091018;28;20052;-61
2023/08/03 05:56:22;;;;;;;3.40;1.42;;;;;;;25.27;50.95;99183.91;5091092;28;20082;-61
2023/08/03 05:58:52;;;;;;;2.33;1.55;;;;;;;25.26;50.98;99177.59;5090956;28;20098;-65
2023/08/03 06:01:21;;;;;;;3.13;1.70;;;;;;;25.27;50.80;99182.00;5090962;28;20052;-64
2023/08/03 06:03:53;;;;;;;4.38;1.90;;;;;;;25.28;50.97;99186.41;5090936;28;20048;-64
2023/08/03 06:06:25;;;;;;;3.92;1.77;;;;;;;25.30;51.14;99189.78;5090816;28;20418;-63
2023/08/03 06:08:58;;;;;;;3.88;1.77;;;;;;;25.31;50.78;99185.19;5090714;28;20408;-64
2023/08/03 06:11:27;;;;;;;4.57;1.73;;;;;;;25.32;50.69;99182.22;5090819;28;20075;-69
2023/08/03 06:13:56;;;;;;;2.55;1.50;;;;;;;25.32;50.86;99192.31;5090843;28;20048;-69
2023/08/03 06:16:25;;;;;;;3.00;1.58;;;;;;;25.32;50.80;99193.13;5092461;28;20384;-69
2023/08/03 06:18:55;;;;;;;4.18;1.65;;;;;;;25.34;51.43;99198.38;5094435;28;20044;-64
2023/08/03 06:21:25;;;;;;;3.47;1.88;;;;;;;25.33;51.48;99204.91;5094596;28;20412;-64
2023/08/03 06:23:57;;;;;;;4.10;1.77;;;;;;;25.33;51.54;99194.81;5094649;28;20115;-64
2023/08/03 06:26:27;;;;;;;4.80;2.22;;;;;;;25.35;51.79;99197.31;5093031;28;20334;-63
2023/08/03 06:29:00;;;;;;;4.32;2.63;;;;;;;25.33;52.98;99193.97;5094357;28;20048;-63
2023/08/03 06:31:32;;;;;;;5.75;3.00;;;;;;;25.29;53.94;99190.00;5094187;28;20476;-63
2023/08/03 06:34:02;;;;;;;6.18;2.85;;;;;;;25.27;54.13;99195.66;5094167;28;20426;-63
2023/08/03 06:36:30;;;;;;;7.45;3.00;;;;;;;25.23;54.77;99193.59;5093002;28;20048;-63
2023/08/03 06:39:00;;;;;;;6.78;2.67;;;;;;;25.21;54.67;99185.59;5094130;28;20044;-64
2023/08/03 06:41:28;;;;;;;4.70;2.58;;;;;;;25.21;54.57;99195.69;5094154;28;20067;-62
2023/08/03 06:43:57;;;;;;;4.00;2.55;;;;;;;25.23;54.40;99207.22;5093879;28;20123;-64
2023/08/03 06:46:27;;;;;;;5.10;2.90;;;;;;;25.21;54.50;99195.69;5094012;28;20548;-62
2023/08/03 06:48:56;;;;;;;6.50;3.05;;;;;;;25.24;54.45;99200.72;5093935;28;20044;-62
2023/08/03 06:51:24;;;;;;;6.13;3.30;;;;;;;25.26;54.50;99198.59;5093582;28;20477;-63
2023/08/03 06:53:53;;;;;;;7.88;3.85;;;;;;;25.26;54.77;99198.59;5093865;28;20048;-62
2023/08/03 06:56:22;;;;;;;7.70;3.33;;;;;;;25.28;54.77;99202.78;5093451;28;20532;-61
2023/08/03 06:58:50;;;;;;;8.13;2.90;;;;;;;25.28;54.68;99202.78;5093821;28;20047;-61
2023/08/03 07:01:21;;;;;;;8.18;3.30;;;;;;;25.31;54.93;99207.00;5093409;28;20481;-62
2023/08/03 07:03:49;;;;;;;10.85;3.88;;;;;;;25.34;55.28;99217.50;5093764;28;20055;-62
2023/08/03 07:06:18;;;;;;;8.93;3.47;;;;;;;25.32;55.79;99225.06;5093621;28;20048;-63
2023/08/03 07:08:46;;;;;;;8.85;3.72;;;;;;;25.32;55.44;99222.31;5093318;28;20443;-63
2023/08/03 07:11:14;;;;;;;8.57;3.65;;;;;;;25.33;55.52;99224.00;5093296;28;20063;-63
2023/08/03 07:13:44;;;;;;;8.82;3.72;;;;;;;25.34;55.76;99228.41;5093536;28;20150;-64
2023/08/03 07:16:12;;;;;;;13.70;4.90;;;;;;;25.35;55.35;99233.66;5093532;28;20052;-63
2023/08/03 07:18:41;;;;;;;15.02;4.97;;;;;;;25.38;55.56;99237.84;5093489;28;20131;-64
2023/08/03 07:21:09;;;;;;;13.05;4.38;;;;;;;25.38;55.50;99232.38;5093407;28;20110;-64
2023/08/03 07:23:37;;;;;;;11.43;4.88;;;;;;;25.40;55.87;99227.56;5092762;28;20051;-63
2023/08/03 07:26:14;;;;;;;13.88;4.85;;;;;;;25.42;55.75;99241.84;5093190;28;20044;-62
2023/08/03 07:28:43;;;;;;;16.15;5.53;;;;;;;25.44;55.67;99236.16;5093119;28;20481;-63
2023/08/03 07:31:14;;;;;;;12.73;5.30;;;;;;;25.44;55.70;99237.00;5092367;28;20158;-63
2023/08/03 07:33:45;;;;;;;15.48;5.32;;;;;;;25.45;55.40;99238.66;5093016;28;20138;-63
2023/08/03 07:36:17;;;;;;;16.23;6.07;;;;;;;25.46;55.34;99237.63;5093028;28;20077;-65
2023/08/03 07:38:45;;;;;;;13.02;5.28;;;;;;;25.48;55.64;99241.00;5093195;28;20067;-65
2023/08/03 07:41:14;;;;;;;14.55;5.25;;;;;;;25.48;55.72;99257.38;5092817;28;20052;-64
2023/08/03 07:43:42;;;;;;;16.02;5.25;;;;;;;25.49;55.76;99247.28;5092864;28;20044;-64
2023/08/03 07:46:11;;;;;;;13.60;4.78;;;;;;;25.51;55.60;99259.66;5092971;28;20150;-63
2023/08/03 07:48:39;;;;;;;15.13;5.55;;;;;;;25.51;55.44;99267.03;5092709;28;20101;-65
2023/08/03 07:51:12;;;;;;;13.45;5.10;;;;;;;25.52;55.53;99266.81;5092612;28;20052;-64
2023/08/03 07:53:41;;;;;;;12.32;4.72;;;;;;;25.52;55.80;99269.53;5092662;28;20052;-65
2023/08/03 07:56:15;;;;;;;13.70;5.43;;;;;;;25.52;55.34;99271.44;5092525;28;20381;-64
2023/08/03 07:58:43;;;;;;;13.05;5.28;;;;;;;25.54;55.50;99274.78;5092607;28;20048;-64
2023/08/03 08:01:13;;;;;;;12.45;4.75;;;;;;;25.53;55.63;99279.41;5092470;28;20087;-65
2023/08/03 08:03:43;;;;;;;11.48;5.32;;;;;;;25.55;55.39;99282.75;5092685;28;20040;-65
2023/08/03 08:06:13;;;;;;;11.18;4.30;;;;;;;25.56;55.63;99280.84;5092606;28;20105;-64
2023/08/03 08:08:42;;;;;;;11.68;4.97;;;;;;;25.56;55.38;99284.44;5092303;28;20121;-65
2023/08/03 08:11:11;;;;;;;10.98;4.78;;;;;;;25.57;55.32;99283.38;5092366;28;20127;-64
2023/08/03 08:13:41;;;;;;;10.40;4.63;;;;;;;25.58;55.67;99289.72;5092263;28;20083;-65
2023/08/03 08:16:11;;;;;;;11.15;5.00;;;;;;;25.57;55.54;99280.66;5092319;28;20048;-64
2023/08/03 08:18:41;;;;;;;12.68;4.88;;;;;;;25.58;55.92;99287.81;5092147;28;20048;-64
2023/08/03 08:21:11;;;;;;;10.07;4.93;;;;;;;25.60;55.56;99288.44;5092314;28;20083;-64
2023/08/03 08:23:40;;;;;;;10.07;4.88;;;;;;;25.61;55.62;99298.28;5092409;28;20044;-64
2023/08/03 08:26:12;;;;;;;8.93;4.40;;;;;;;25.61;55.46;99302.91;5092066;28;20052;-64
2023/08/03 08:28:41;;;;;;;;;;;;;;;25.62;55.77;99297.25;5092684;28;20075;-64
2023/08/03 08:31:24;;;;;;;14.10;5.00;;;;;;;25.62;55.64;99310.91;5092153;28;19927;-64
2023/08/03 08:33:53;;;;;;;11.85;5.10;;;;;;;25.65;55.64;99312.34;5092016;28;20451;-64
2023/08/03 08:36:22;;;;;;;12.55;5.00;;;;;;;25.65;55.26;99318.66;5091956;28;20109;-64
2023/08/03 08:38:50;;;;;;;11.93;5.15;;;;;;;25.65;55.27;99318.66;5091272;28;20044;-64
2023/08/03 08:41:18;;;;;;;12.27;5.20;;;;;;;25.71;55.40;99327.09;5091709;28;20474;-64
2023/08/03 08:43:47;;;;;;;10.88;4.78;;;;;;;25.72;55.52;99324.16;5091578;28;20131;-64
2023/08/03 08:46:15;;;;;;;13.02;5.00;;;;;;;25.73;55.34;99314.06;5091762;28;20057;-64
2023/08/03 08:48:43;;;;;;;9.50;4.70;;;;;;;25.74;55.20;99313.84;5091636;28;20051;-64
2023/08/03 08:51:20;;;;;;;11.90;4.82;;;;;;;25.77;54.98;99320.75;5091655;28;20044;-65
2023/08/03 08:54:08;;;;;;;12.40;5.00;;;;;;;25.78;55.29;99319.75;5091514;28;20044;-64
2023/08/03 08:56:39;;;;;;;10.45;4.72;;;;;;;25.79;54.82;99322.25;5091531;28;20055;-64
2023/08/03 08:59:10;;;;;;;9.90;5.03;;;;;;;25.80;54.81;99325.81;5091481;28;20127;-64
2023/08/03 09:01:51;;;;;;;10.45;5.07;;;;;;;25.83;55.29;99330.84;5091484;28;20079;-64
2023/08/03 09:04:38;;;;;;;11.65;5.10;;;;;;;25.85;55.17;99334.19;5091785;28;20143;-64
2023/08/03 09:07:07;;;;;;;10.52;5.00;;;;;;;25.86;55.11;99333.16;5091657;28;20048;-64
2023/08/03 09:09:37;;;;;;;9.07;5.00;;;;;;;25.87;55.10;99323.94;5071366;28;20048;-65
2023/08/03 09:12:06;;;;;;;10.70;4.75;;;;;;;25.89;54.89;99332.75;5071264;28;20044;-65
2023/08/03 09:14:50;;;;;;;10.60;4.82;;;;;;;25.90;54.76;99337.16;5071370;28;20059;-65
2023/08/03 09:17:19;;;;;;;13.20;5.03;;;;;;;25.91;54.83;99338.81;5071091;28;20056;-64
2023/08/03 09:19:48;;;;;;;10.70;4.85;;;;;;;25.92;54.54;99337.75;5071157;28;20058;-64
2023/08/03 09:22:24;;;;;;;10.75;4.90;;;;;;;25.93;54.49;99326.63;5069787;28;20511;-64
2023/08/03 09:25:05;;;;;;;11.40;5.20;;;;;;;25.94;54.83;99327.47;5071075;28;20386;-64
2023/08/03 09:27:34;;;;;;;11.40;5.15;;;;;;;25.96;55.22;99336.28;5071191;28;20071;-64
2023/08/03 09:30:06;;;;;;;9.18;4.03;;;;;;;25.98;55.33;99333.34;5071199;28;20056;-65
2023/08/03 09:32:37;;;;;;;9.55;4.45;;;;;;;26.02;55.27;99337.31;5071062;28;20509;-65
2023/08/03 09:35:17;;;;;;;8.35;4.30;;;;;;;26.03;55.06;99328.91;5070984;28;20044;-65
2023/08/03 09:37:48;;;;;;;9.60;4.80;;;;;;;26.04;54.89;99344.25;5070833;28;20405;-65
2023/08/03 09:40:17;;;;;;;9.25;4.57;;;;;;;26.05;54.93;99335.00;5071150;28;20465;-65
2023/08/03 09:42:47;;;;;;;7.57;4.43;;;;;;;26.08;54.96;99355.59;5071075;28;20071;-65
2023/08/03 09:45:15;;;;;;;8.77;4.13;;;;;;;26.09;54.79;99360.84;5071176;28;20070;-65
2023/08/03 09:47:48;;;;;;;9.65;4.50;;;;;;;26.11;54.87;99358.75;5071383;28;20440;-64
2023/08/03 09:50:16;;;;;;;9.60;4.35;;;;;;;26.12;54.97;99357.69;5071454;28;20451;-64
2023/08/03 09:52:49;;;;;;;7.20;3.95;;;;;;;26.15;55.52;99370.06;5075006;28;20051;-65
2023/08/03 09:55:28;;;;;;;8.18;4.25;;;;;;;26.13;55.63;99351.16;5074860;28;20059;-65
2023/08/03 09:58:01;;;;;;;5.90;3.65;;;;;;;26.17;55.29;99362.53;5074627;28;20045;-66
2023/08/03 10:00:29;;;;;;;;;;;;;;;26.19;55.95;99363.97;5074955;28;20049;-66
2023/08/03 10:03:01;;;;;;;6.82;4.10;;;;;;;26.21;55.65;99355.56;5074783;28;19924;-66
2023/08/03 10:05:33;;;;;;;8.18;4.28;;;;;;;26.21;55.85;99361.84;5074557;28;20450;-64
2023/08/03 10:08:07;;;;;;;6.83;3.87;;;;;;;26.23;55.56;99365.22;5081444;28;20139;-63
2023/08/03 10:10:39;;;;;;;7.72;4.53;;;;;;;26.25;55.88;99368.59;5094678;28;20508;-66
2023/08/03 10:13:07;;;;;;;8.07;4.20;;;;;;;26.29;55.81;99369.00;5095129;28;20059;-66
2023/08/03 10:15:36;;;;;;;9.27;4.13;;;;;;;26.29;55.83;99368.16;5094560;28;20273;-65
2023/08/03 10:18:06;;;;;;;7.25;4.20;;;;;;;26.31;55.78;99372.34;5094394;28;20142;-64
2023/08/03 10:20:36;;;;;;;7.35;4.30;;;;;;;26.34;55.86;99360.13;5093216;28;20059;-65
2023/08/03 10:23:11;;;;;;;6.15;3.88;;;;;;;26.36;55.84;99363.50;5093114;28;20131;-66
2023/08/03 10:25:57;;;;;;;7.85;4.22;;;;;;;26.37;55.47;99359.72;5094275;28;20067;-65
2023/08/03 10:28:26;;;;;;;7.85;4.50;;;;;;;26.39;55.45;99352.16;5094408;28;20048;-64
2023/08/03 10:31:10;;;;;;;7.13;4.03;;;;;;;26.41;55.59;99361.81;5094297;28;20101;-65
2023/08/03 10:34:09;;;;;;;7.75;4.38;;;;;;;26.43;55.19;99358.88;5094184;28;20451;-65
2023/08/03 10:36:49;;;;;;;8.68;4.25;;;;;;;26.46;55.00;99358.47;5093585;28;20097;-65
2023/08/03 10:39:51;;;;;;;7.70;4.28;;;;;;;26.46;55.16;99348.34;5094451;28;20404;-66
2023/08/03 10:42:32;;;;;;;8.50;4.30;;;;;;;26.51;55.34;99361.38;5094131;28;20063;-65
2023/08/03 10:45:25;;;;;;;8.68;4.45;;;;;;;26.51;55.26;99356.72;5094001;28;20515;-65
2023/08/03 10:47:54;;;;;;;7.53;4.13;;;;;;;26.53;55.18;99359.25;5094086;28;20093;-65
2023/08/03 10:50:57;;;;;;;8.70;4.28;;;;;;;26.56;55.00;99361.56;5094042;28;20101;-64
2023/08/03 10:53:26;;;;;;;8.20;4.63;;;;;;;26.58;54.94;99343.03;5094163;28;20080;-65
2023/08/03 10:56:05;;;;;;;8.60;4.78;;;;;;;26.62;54.56;99357.09;5094160;28;20135;-65
2023/08/03 10:58:43;;;;;;;7.63;4.32;;;;;;;26.63;54.49;99370.56;5093728;28;20094;-65
2023/08/03 11:01:14;;;;;;;8.00;4.13;;;;;;;26.66;54.35;99361.09;5093268;28;20052;-66
2023/08/03 11:03:43;;;;;;;8.65;4.30;;;;;;;26.67;54.29;99358.13;5093645;28;20051;-65
2023/08/03 11:06:11;;;;;;;6.72;3.90;;;;;;;26.70;54.49;99363.16;5093550;28;20060;-64
2023/08/03 11:08:40;;;;;;;7.80;4.47;;;;;;;26.71;54.24;99366.75;5093581;28;20087;-65
2023/08/03 11:11:12;;;;;;;7.35;4.35;;;;;;;26.75;54.10;99357.91;5093823;28;20451;-65
2023/08/03 11:13:44;;;;;;;10.13;4.18;;;;;;;26.79;54.00;99364.59;5093540;28;20144;-64
2023/08/03 11:16:15;;;;;;;7.70;4.23;;;;;;;26.81;54.30;99362.47;5093588;28;20040;-66
2023/08/03 11:18:45;;;;;;;8.18;4.28;;;;;;;26.85;54.28;99373.00;5093497;28;20627;-65
2023/08/03 11:21:14;;;;;;;7.65;3.90;;;;;;;26.86;54.48;99369.19;5093380;28;20085;-64
2023/08/03 11:23:42;;;;;;;6.72;3.80;;;;;;;26.88;54.19;99376.13;5093269;28;20050;-65
2023/08/03 11:26:12;;;;;;;7.35;4.18;;;;;;;26.89;54.16;99375.06;5093175;28;20131;-64
2023/08/03 11:28:41;;;;;;;7.30;3.97;;;;;;;26.90;54.04;99392.31;5093311;28;20044;-65
2023/08/03 11:31:16;;;;;;;7.05;3.70;;;;;;;26.91;53.54;99399.47;5093304;28;20082;-65
2023/08/03 11:33:49;;;;;;;7.07;4.00;;;;;;;26.93;53.71;99414.63;5093085;28;20217;-65
2023/08/03 11:36:18;;;;;;;7.07;3.42;;;;;;;26.94;53.80;99399.06;5093097;28;20051;-65
2023/08/03 11:38:46;;;;;;;7.65;3.65;;;;;;;26.94;53.24;99410.00;5092820;28;20408;-66
2023/08/03 11:41:18;;;;;;;6.18;3.50;;;;;;;26.97;53.53;99406.81;5092927;28;20055;-65
2023/08/03 11:43:55;;;;;;;6.10;3.95;;;;;;;27.01;53.37;99418.97;5093005;28;20047;-66
2023/08/03 11:46:27;;;;;;;6.40;3.67;;;;;;;27.02;53.06;99412.44;5093072;28;20067;-65